Terminal Aerodrome Forecast
Issued by NWS

Current Version | Previous Version | Text Only | Print | Product List | Glossary On
Versions: 1 2 3 4 5 6 7 8 9 10 11 12 13
000
FTUS44 KEPZ 300500
TAFDMN
TAF
KDMN 300528Z 3006/3106 31007KT P6SM FEW120 FEW250
     FM301000 04012G22KT P6SM FEW120
     FM301700 07011KT P6SM FEW070
     FM302000 11011KT P6SM VCSH SCT070 SCT120 BKN250
     FM302200 33011KT P6SM VCSH SCT060 BKN120 BKN230=

USA.gov is the U.S. government's official web portal to all federal, state and local government web resources and services.